Buoy 17652

sailwx.info

Track history (hours):
 
Tides and Currents Weather Stations Pressure Air Temp Water Temp Dewpoint Dewpoint Depression Visibility Wind Speed Wind Dir Waves Ship Positions

Drifting buoy 17652

Last reported at 2016-Aug-24 00:00 UTC. Time now 2016-Aug-24 01:35 UTC.
Position S 42°25' E 030°59'.

Barometer 996.0 mb
Water temperature 11.7 ° C

Date/timePositionNaut miles runAvg speedWind from/ knotsBaromVisibWave heightAir tempDewpointWater temp
2016-Aug-24 00:00S 42°25' E 030°59'2 0.7 996.0 11.7
2016-Aug-23 21:00S 42°25' E 030°57'1 1.1 997.3 10.5
2016-Aug-23 20:00S 42°25' E 030°55'5 2.4 997.9 10.5
2016-Aug-23 18:00S 42°23' E 030°49'1 0.6 999.4 11.9
2016-Aug-23 17:00S 42°23' E 030°48'1 1.0 1000.5 11.9
2016-Aug-23 16:00S 42°22' E 030°47'2 1.2 1001.7 12.0
2016-Aug-23 14:00S 42°21' E 030°45'1 0.7 1005.2 11.9
2016-Aug-23 12:00S 42°20' E 030°43'2 0.6 1009.4 11.9
2016-Aug-23 08:00S 42°19' E 030°40'2 0.9 1015.3 11.9
2016-Aug-23 06:00S 42°20' E 030°38'1 0.8 1016.5 11.9
2016-Aug-23 05:00S 42°19' E 030°38'1 0.8 1016.9 11.9
2016-Aug-23 04:00S 42°19' E 030°37'1 0.5 1016.7 11.9
2016-Aug-23 03:00S 42°19' E 030°36'0 0.0 1016.5 12.0
2016-Aug-23 02:00S 42°19' E 030°36'4 2.0 1016.1 11.9
2016-Aug-23 00:00S 42°18' E 030°31'1 0.4 1016.3 12.0
2016-Aug-22 21:00S 42°18' E 030°29'0 0.0 1017.9 11.9
2016-Aug-22 20:00S 42°18' E 030°29'1 0.7 1017.9 11.9
2016-Aug-22 19:00S 42°18' E 030°29'1 0.6 1018.0 11.9
2016-Aug-22 18:00S 42°19' E 030°28'1 1.0 1017.9 12.0
2016-Aug-22 17:00S 42°19' E 030°27'1 0.6 1017.7 12.0
2016-Aug-22 15:00S 42°20' E 030°27'0 0.0 1016.0 12.0
2016-Aug-22 14:00S 42°20' E 030°27'1 1.4 1015.1 12.0
2016-Aug-22 13:00S 42°21' E 030°25'0 0.0 1014.1 12.0
2016-Aug-22 12:00S 42°21' E 030°25'4 1.1 1012.9 12.0
2016-Aug-22 08:00S 42°24' E 030°21'1 0.3 1010.0 12.0
2016-Aug-22 06:00S 42°25' E 030°21'1 0.3 1008.4 12.0
2016-Aug-22 04:00S 42°25' E 030°20'2 2.2 1005.9 12.0
2016-Aug-22 03:00S 42°27' E 030°20'0 0.0 1005.4 12.0
2016-Aug-22 00:00S 42°27' E 030°20'2 1.9 1004.3 12.0
2016-Aug-21 23:00S 42°28' E 030°19'2 0.8 1003.0 12.0
2016-Aug-21 21:00S 42°29' E 030°17'2 0.8 1001.1 12.0
2016-Aug-21 19:00S 42°30' E 030°15'1 1.5 998.2 12.0
2016-Aug-21 18:00S 42°29' E 030°14'1 1.4 995.4 12.0
2016-Aug-21 17:00S 42°28' E 030°14'1 0.7 996.5 12.0
2016-Aug-21 16:00S 42°27' E 030°14'1 1.0 998.1 12.0
2016-Aug-21 15:00S 42°26' E 030°14'2 0.9 999.6 12.0
2016-Aug-21 13:00S 42°24' E 030°14'6 1.1 1003.5 12.0
2016-Aug-21 07:00S 42°18' E 030°15'0 0.0 1013.7 12.0
2016-Aug-21 06:00S 42°18' E 030°15'0 0.0 1015.0 12.0
2016-Aug-21 05:00S 42°18' E 030°15'0 0.3 1016.2 12.0
2016-Aug-21 04:00S 42°18' E 030°16'1 0.8 1017.4 12.0
2016-Aug-21 03:00S 42°17' E 030°15'2 1.9 1018.2 12.0
2016-Aug-21 02:00S 42°16' E 030°14'0 0.0 1019.0 12.0
2016-Aug-21 00:00S 42°16' E 030°14'3 3.1 1021.6 12.0
2016-Aug-20 23:00S 42°13' E 030°12'2 1.8 1022.5 12.0
2016-Aug-20 22:00S 42°15' E 030°12'2 2.4 1023.3 11.9
2016-Aug-20 21:00S 42°12' E 030°12'0 0.0 1023.7 11.9
2016-Aug-20 19:00S 42°12' E 030°12'1 0.4 1025.6 11.9
2016-Aug-20 16:00S 42°11' E 030°12'0 0.2 1026.0 11.9
2016-Aug-20 15:00S 42°11' E 030°12'1 0.9 1025.7 11.9
2016-Aug-20 14:00S 42°11' E 030°11'0 0.0 1025.5 11.9
2016-Aug-20 13:00S 42°11' E 030°11'1 0.5 1025.7 12.0
2016-Aug-20 11:00S 42°12' E 030°10'0 0.1 1026.1 11.9
2016-Aug-20 07:00S 42°12' E 030°10'1 0.6 1026.2 11.9
2016-Aug-20 06:00S 42°12' E 030°10'0 0.5 1025.7 11.9
2016-Aug-20 05:00S 42°13' E 030°09'2 1.0 1024.7 11.9
2016-Aug-20 03:00S 42°15' E 030°08'0 0.0 1022.1 12.0
2016-Aug-20 01:00S 42°15' E 030°08'2 1.5 1020.1 12.0
2016-Aug-20 00:00S 42°16' E 030°08'2 1.6 1019.4 12.1
2016-Aug-19 23:00S 42°18' E 030°08'2 0.6 1018.9 12.0
2016-Aug-19 20:00S 42°19' E 030°07'3 1.3 1016.1 12.0
2016-Aug-19 18:00S 42°22' E 030°08'2 2.5 1013.0 12.0
2016-Aug-19 17:00S 42°24' E 030°06'0 0.0 1010.5 12.0
2016-Aug-19 16:00S 42°24' E 030°06'3 2.6 1008.9 12.0
2016-Aug-19 15:00S 42°26' E 030°07'0 0.0 1006.2 11.9
2016-Aug-19 13:00S 42°26' E 030°06'2 0.8 1003.0 12.1
2016-Aug-19 11:00S 42°27' E 030°04'0 0.0 1002.5 12.1
2016-Aug-19 07:00S 42°27' E 030°04'1 1.1 1006.5 12.0
2016-Aug-19 06:00S 42°27' E 030°03'1 0.4 1006.9 12.0
2016-Aug-19 04:00S 42°28' E 030°02'2 1.6 1007.6 12.1
2016-Aug-19 03:00S 42°29' E 030°01'1 0.3 1008.0 12.1
2016-Aug-19 01:00S 42°28' E 030°01'1 0.4 1010.2 12.1
2016-Aug-18 23:00S 42°29' E 029°60'2 0.7 1012.7 12.1
2016-Aug-18 20:00S 42°28' E 029°57'2 0.8 1015.4 12.1
2016-Aug-18 18:00S 42°27' E 029°56'1 0.5 1017.2 12.1
2016-Aug-18 16:00S 42°26' E 029°55'1 0.8 1018.5 12.1
2016-Aug-18 15:00S 42°25' E 029°55'0 0.5 1019.0 12.1
2016-Aug-18 14:00S 42°25' E 029°54'0 0.0 1019.9 12.1
2016-Aug-18 13:00S 42°25' E 029°54'1 0.9 1020.8 12.2
2016-Aug-18 12:00S 42°24' E 029°54'0 0.0 1021.7 12.2
2016-Aug-18 11:00S 42°24' E 029°54'1 0.3 1022.8 12.1
2016-Aug-18 08:00S 42°23' E 029°55'1 0.4 1025.0 12.1
2016-Aug-18 05:00S 42°23' E 029°53'0 0.2 1025.4 12.0
2016-Aug-18 04:00S 42°23' E 029°53'1 0.7 1025.1 12.0
2016-Aug-18 03:00S 42°23' E 029°52'0 0.0 1025.3 12.0
2016-Aug-18 01:00S 42°23' E 029°52'1 0.7 1025.6 12.0
2016-Aug-17 23:00S 42°22' E 029°50'1 0.3 1026.2 12.0
2016-Aug-17 20:00S 42°23' E 029°51'0 0.2 1026.7 12.0
2016-Aug-17 19:00S 42°23' E 029°51'1 0.7 1026.2 12.0
2016-Aug-17 18:00S 42°24' E 029°52'1 0.5 1025.9 12.0
2016-Aug-17 16:00S 42°24' E 029°50'1 0.6 1024.7 12.0
2016-Aug-17 14:00S 42°25' E 029°50'1 1.4 1023.2 12.0
2016-Aug-17 13:00S 42°25' E 029°48'0 0.1 1023.1 12.0
2016-Aug-17 12:00S 42°25' E 029°48'4 1.0 1023.2 12.1
2016-Aug-17 08:00S 42°24' E 029°43'1 0.4 1025.1 12.4
2016-Aug-17 06:00S 42°23' E 029°42'1 0.6 1025.8 12.5
2016-Aug-17 05:00S 42°23' E 029°41'0 0.0 1025.8 12.5
2016-Aug-17 04:00S 42°23' E 029°41'1 1.5 1025.9 12.5
2016-Aug-17 03:00S 42°22' E 029°40'1 1.0 1026.2 12.5
2016-Aug-17 02:00S 42°21' E 029°40'0 0.0 1026.4 12.5
2016-Aug-17 01:00S 42°21' E 029°40'2 2.0 1026.8 12.4
2016-Aug-17 00:00S 42°19' E 029°38'2 2.0 1027.3 11.9
2016-Aug-16 23:00S 42°18' E 029°37'1 0.3 1027.7 11.8
2016-Aug-16 19:00S 42°18' E 029°35'2 2.2 1028.4 11.8
2016-Aug-16 18:00S 42°17' E 029°32'0 0.4 1028.5 11.9
2016-Aug-16 17:00S 42°17' E 029°32'1 0.9 1028.2 11.9
2016-Aug-16 16:00S 42°17' E 029°31'1 1.3 1028.3 11.8
2016-Aug-16 15:00S 42°16' E 029°30'0 0.0 1027.7 11.8
2016-Aug-16 14:00S 42°16' E 029°30'1 0.5 1027.7 11.8
2016-Aug-16 12:00S 42°16' E 029°28'5 0.9 1027.7 11.9
2016-Aug-16 07:00S 42°15' E 029°22'1 1.0 1027.7 12.3
2016-Aug-16 06:00S 42°15' E 029°21'1 0.9 1027.5 12.3
2016-Aug-16 05:00S 42°15' E 029°20'0 0.3 1026.5 12.3
2016-Aug-16 04:00S 42°15' E 029°20'1 0.7 1025.9 12.3
2016-Aug-16 03:00S 42°15' E 029°19'2 2.4 1025.1 12.2
2016-Aug-16 02:00S 42°16' E 029°16'0 0.0 1024.2 12.2
2016-Aug-16 01:00S 42°16' E 029°16'3 2.6 1023.6 12.2
2016-Aug-16 00:00S 42°17' E 029°13'3 2.6 1023.4 12.3
2016-Aug-15 23:00S 42°16' E 029°16'5 2.4 1022.6 12.3
2016-Aug-15 21:00S 42°17' E 029°10'3 1.4 1020.8 12.2
2016-Aug-15 19:00S 42°16' E 029°06'3 0.8 1019.1 12.2
2016-Aug-15 16:00S 42°17' E 029°03'2 1.8 1016.5 12.2
2016-Aug-15 15:00S 42°17' E 029°00'1 1.4 1016.0 12.2
2016-Aug-15 14:00S 42°16' E 028°59'0 0.1 1015.6 12.3
2016-Aug-15 12:00S 42°16' E 028°59'7 1.2 1015.1 12.3
2016-Aug-15 06:00S 42°17' E 028°49'1 1.3 1014.9 12.7
2016-Aug-15 05:00S 42°17' E 028°47'2 2.5 1013.7 12.7
2016-Aug-15 04:00S 42°17' E 028°44'0 0.0 1013.1 12.6
2016-Aug-15 03:00S 42°17' E 028°44'7 6.8 1012.4 12.5
2016-Aug-15 02:00S 42°16' E 028°35'0 0.0 1011.9 12.5
2016-Aug-15 01:00S 42°16' E 028°35'0 0.0 1011.2 12.5
2016-Aug-15 00:00S 42°16' E 028°35'1 0.2 1010.5 12.5
2016-Aug-14 21:00S 42°15' E 028°34'0 0.4 1006.6 12.5
2016-Aug-14 20:00S 42°15' E 028°34'0 0.0 1005.9 12.6
2016-Aug-14 18:00S 42°15' E 028°34'1 0.8 1004.2 12.6
2016-Aug-14 17:00S 42°16' E 028°33'2 1.0 1002.9 12.6
2016-Aug-14 15:00S 42°16' E 028°30'0 0.1 998.8 12.4
2016-Aug-14 14:00S 42°16' E 028°30'2 0.9 996.4 12.4
2016-Aug-14 12:00S 42°17' E 028°28'5 1.0 993.0 12.4
2016-Aug-14 07:00S 42°15' E 028°21'1 1.3 991.6 12.5
2016-Aug-14 06:00S 42°14' E 028°21'0 0.0 992.3 12.5
2016-Aug-14 05:00S 42°14' E 028°21'1 0.8 993.1 12.5
2016-Aug-14 04:00S 42°13' E 028°22'2 2.4 994.5 12.6
2016-Aug-14 03:00S 42°11' E 028°23'0 0.0 996.0 12.5
2016-Aug-14 02:00S 42°11' E 028°23'0 0.0 997.5 12.5
2016-Aug-14 01:00S 42°11' E 028°23'2 1.7 999.0 12.6
2016-Aug-14 00:00S 42°09' E 028°22'   1000.5 12.7
Track history (hours):
 
Tides and Currents Weather Stations Pressure Air Temp Water Temp Dewpoint Dewpoint Depression Visibility Wind Speed Wind Dir Waves Ship Positions

Drifting buoy 17652

Last reported at 2016-Aug-24 00:00 UTC. Time now 2016-Aug-24 01:35 UTC.
Position S 42°25' E 030°59'.

Barometer 996.0 mb
Water temperature 11.7 ° C

Date/timePositionNaut miles runAvg speedWind from/ knotsBaromVisibWave heightAir tempDewpointWater temp
2016-Aug-24 00:00S 42°25' E 030°59'2 0.7 996.0 11.7
2016-Aug-23 21:00S 42°25' E 030°57'1 1.1 997.3 10.5
2016-Aug-23 20:00S 42°25' E 030°55'5 2.4 997.9 10.5
2016-Aug-23 18:00S 42°23' E 030°49'1 0.6 999.4 11.9
2016-Aug-23 17:00S 42°23' E 030°48'1 1.0 1000.5 11.9
2016-Aug-23 16:00S 42°22' E 030°47'2 1.2 1001.7 12.0
2016-Aug-23 14:00S 42°21' E 030°45'1 0.7 1005.2 11.9
2016-Aug-23 12:00S 42°20' E 030°43'2 0.6 1009.4 11.9
2016-Aug-23 08:00S 42°19' E 030°40'2 0.9 1015.3 11.9
2016-Aug-23 06:00S 42°20' E 030°38'1 0.8 1016.5 11.9
2016-Aug-23 05:00S 42°19' E 030°38'1 0.8 1016.9 11.9
2016-Aug-23 04:00S 42°19' E 030°37'1 0.5 1016.7 11.9
2016-Aug-23 03:00S 42°19' E 030°36'0 0.0 1016.5 12.0
2016-Aug-23 02:00S 42°19' E 030°36'4 2.0 1016.1 11.9
2016-Aug-23 00:00S 42°18' E 030°31'1 0.4 1016.3 12.0
2016-Aug-22 21:00S 42°18' E 030°29'0 0.0 1017.9 11.9
2016-Aug-22 20:00S 42°18' E 030°29'1 0.7 1017.9 11.9
2016-Aug-22 19:00S 42°18' E 030°29'1 0.6 1018.0 11.9
2016-Aug-22 18:00S 42°19' E 030°28'1 1.0 1017.9 12.0
2016-Aug-22 17:00S 42°19' E 030°27'1 0.6 1017.7 12.0
2016-Aug-22 15:00S 42°20' E 030°27'0 0.0 1016.0 12.0
2016-Aug-22 14:00S 42°20' E 030°27'1 1.4 1015.1 12.0
2016-Aug-22 13:00S 42°21' E 030°25'0 0.0 1014.1 12.0
2016-Aug-22 12:00S 42°21' E 030°25'4 1.1 1012.9 12.0
2016-Aug-22 08:00S 42°24' E 030°21'1 0.3 1010.0 12.0
2016-Aug-22 06:00S 42°25' E 030°21'1 0.3 1008.4 12.0
2016-Aug-22 04:00S 42°25' E 030°20'2 2.2 1005.9 12.0
2016-Aug-22 03:00S 42°27' E 030°20'0 0.0 1005.4 12.0
2016-Aug-22 00:00S 42°27' E 030°20'2 1.9 1004.3 12.0
2016-Aug-21 23:00S 42°28' E 030°19'2 0.8 1003.0 12.0
2016-Aug-21 21:00S 42°29' E 030°17'2 0.8 1001.1 12.0
2016-Aug-21 19:00S 42°30' E 030°15'1 1.5 998.2 12.0
2016-Aug-21 18:00S 42°29' E 030°14'1 1.4 995.4 12.0
2016-Aug-21 17:00S 42°28' E 030°14'1 0.7 996.5 12.0
2016-Aug-21 16:00S 42°27' E 030°14'1 1.0 998.1 12.0
2016-Aug-21 15:00S 42°26' E 030°14'2 0.9 999.6 12.0
2016-Aug-21 13:00S 42°24' E 030°14'6 1.1 1003.5 12.0
2016-Aug-21 07:00S 42°18' E 030°15'0 0.0 1013.7 12.0
2016-Aug-21 06:00S 42°18' E 030°15'0 0.0 1015.0 12.0
2016-Aug-21 05:00S 42°18' E 030°15'0 0.3 1016.2 12.0
2016-Aug-21 04:00S 42°18' E 030°16'1 0.8 1017.4 12.0
2016-Aug-21 03:00S 42°17' E 030°15'2 1.9 1018.2 12.0
2016-Aug-21 02:00S 42°16' E 030°14'0 0.0 1019.0 12.0
2016-Aug-21 00:00S 42°16' E 030°14'3 3.1 1021.6 12.0
2016-Aug-20 23:00S 42°13' E 030°12'2 1.8 1022.5 12.0
2016-Aug-20 22:00S 42°15' E 030°12'2 2.4 1023.3 11.9
2016-Aug-20 21:00S 42°12' E 030°12'0 0.0 1023.7 11.9
2016-Aug-20 19:00S 42°12' E 030°12'1 0.4 1025.6 11.9
2016-Aug-20 16:00S 42°11' E 030°12'0 0.2 1026.0 11.9
2016-Aug-20 15:00S 42°11' E 030°12'1 0.9 1025.7 11.9
2016-Aug-20 14:00S 42°11' E 030°11'0 0.0 1025.5 11.9
2016-Aug-20 13:00S 42°11' E 030°11'1 0.5 1025.7 12.0
2016-Aug-20 11:00S 42°12' E 030°10'0 0.1 1026.1 11.9
2016-Aug-20 07:00S 42°12' E 030°10'1 0.6 1026.2 11.9
2016-Aug-20 06:00S 42°12' E 030°10'0 0.5 1025.7 11.9
2016-Aug-20 05:00S 42°13' E 030°09'2 1.0 1024.7 11.9
2016-Aug-20 03:00S 42°15' E 030°08'0 0.0 1022.1 12.0
2016-Aug-20 01:00S 42°15' E 030°08'2 1.5 1020.1 12.0
2016-Aug-20 00:00S 42°16' E 030°08'2 1.6 1019.4 12.1
2016-Aug-19 23:00S 42°18' E 030°08'2 0.6 1018.9 12.0
2016-Aug-19 20:00S 42°19' E 030°07'3 1.3 1016.1 12.0
2016-Aug-19 18:00S 42°22' E 030°08'2 2.5 1013.0 12.0
2016-Aug-19 17:00S 42°24' E 030°06'0 0.0 1010.5 12.0
2016-Aug-19 16:00S 42°24' E 030°06'3 2.6 1008.9 12.0
2016-Aug-19 15:00S 42°26' E 030°07'0 0.0 1006.2 11.9
2016-Aug-19 13:00S 42°26' E 030°06'2 0.8 1003.0 12.1
2016-Aug-19 11:00S 42°27' E 030°04'0 0.0 1002.5 12.1
2016-Aug-19 07:00S 42°27' E 030°04'1 1.1 1006.5 12.0
2016-Aug-19 06:00S 42°27' E 030°03'1 0.4 1006.9 12.0
2016-Aug-19 04:00S 42°28' E 030°02'2 1.6 1007.6 12.1
2016-Aug-19 03:00S 42°29' E 030°01'1 0.3 1008.0 12.1
2016-Aug-19 01:00S 42°28' E 030°01'1 0.4 1010.2 12.1
2016-Aug-18 23:00S 42°29' E 029°60'2 0.7 1012.7 12.1
2016-Aug-18 20:00S 42°28' E 029°57'2 0.8 1015.4 12.1
2016-Aug-18 18:00S 42°27' E 029°56'1 0.5 1017.2 12.1
2016-Aug-18 16:00S 42°26' E 029°55'1 0.8 1018.5 12.1
2016-Aug-18 15:00S 42°25' E 029°55'0 0.5 1019.0 12.1
2016-Aug-18 14:00S 42°25' E 029°54'0 0.0 1019.9 12.1
2016-Aug-18 13:00S 42°25' E 029°54'1 0.9 1020.8 12.2
2016-Aug-18 12:00S 42°24' E 029°54'0 0.0 1021.7 12.2
2016-Aug-18 11:00S 42°24' E 029°54'1 0.3 1022.8 12.1
2016-Aug-18 08:00S 42°23' E 029°55'1 0.4 1025.0 12.1
2016-Aug-18 05:00S 42°23' E 029°53'0 0.2 1025.4 12.0
2016-Aug-18 04:00S 42°23' E 029°53'1 0.7 1025.1 12.0
2016-Aug-18 03:00S 42°23' E 029°52'0 0.0 1025.3 12.0
2016-Aug-18 01:00S 42°23' E 029°52'1 0.7 1025.6 12.0
2016-Aug-17 23:00S 42°22' E 029°50'1 0.3 1026.2 12.0
2016-Aug-17 20:00S 42°23' E 029°51'0 0.2 1026.7 12.0
2016-Aug-17 19:00S 42°23' E 029°51'1 0.7 1026.2 12.0
2016-Aug-17 18:00S 42°24' E 029°52'1 0.5 1025.9 12.0
2016-Aug-17 16:00S 42°24' E 029°50'1 0.6 1024.7 12.0
2016-Aug-17 14:00S 42°25' E 029°50'1 1.4 1023.2 12.0
2016-Aug-17 13:00S 42°25' E 029°48'0 0.1 1023.1 12.0
2016-Aug-17 12:00S 42°25' E 029°48'4 1.0 1023.2 12.1
2016-Aug-17 08:00S 42°24' E 029°43'1 0.4 1025.1 12.4
2016-Aug-17 06:00S 42°23' E 029°42'1 0.6 1025.8 12.5
2016-Aug-17 05:00S 42°23' E 029°41'0 0.0 1025.8 12.5
2016-Aug-17 04:00S 42°23' E 029°41'1 1.5 1025.9 12.5
2016-Aug-17 03:00S 42°22' E 029°40'1 1.0 1026.2 12.5
2016-Aug-17 02:00S 42°21' E 029°40'0 0.0 1026.4 12.5
2016-Aug-17 01:00S 42°21' E 029°40'2 2.0 1026.8 12.4
2016-Aug-17 00:00S 42°19' E 029°38'2 2.0 1027.3 11.9
2016-Aug-16 23:00S 42°18' E 029°37'1 0.3 1027.7 11.8
2016-Aug-16 19:00S 42°18' E 029°35'2 2.2 1028.4 11.8
2016-Aug-16 18:00S 42°17' E 029°32'0 0.4 1028.5 11.9
2016-Aug-16 17:00S 42°17' E 029°32'1 0.9 1028.2 11.9
2016-Aug-16 16:00S 42°17' E 029°31'1 1.3 1028.3 11.8
2016-Aug-16 15:00S 42°16' E 029°30'0 0.0 1027.7 11.8
2016-Aug-16 14:00S 42°16' E 029°30'1 0.5 1027.7 11.8
2016-Aug-16 12:00S 42°16' E 029°28'5 0.9 1027.7 11.9
2016-Aug-16 07:00S 42°15' E 029°22'1 1.0 1027.7 12.3
2016-Aug-16 06:00S 42°15' E 029°21'1 0.9 1027.5 12.3
2016-Aug-16 05:00S 42°15' E 029°20'0 0.3 1026.5 12.3
2016-Aug-16 04:00S 42°15' E 029°20'1 0.7 1025.9 12.3
2016-Aug-16 03:00S 42°15' E 029°19'2 2.4 1025.1 12.2
2016-Aug-16 02:00S 42°16' E 029°16'0 0.0 1024.2 12.2
2016-Aug-16 01:00S 42°16' E 029°16'3 2.6 1023.6 12.2
2016-Aug-16 00:00S 42°17' E 029°13'3 2.6 1023.4 12.3
2016-Aug-15 23:00S 42°16' E 029°16'5 2.4 1022.6 12.3
2016-Aug-15 21:00S 42°17' E 029°10'3 1.4 1020.8 12.2
2016-Aug-15 19:00S 42°16' E 029°06'3 0.8 1019.1 12.2
2016-Aug-15 16:00S 42°17' E 029°03'2 1.8 1016.5 12.2
2016-Aug-15 15:00S 42°17' E 029°00'1 1.4 1016.0 12.2
2016-Aug-15 14:00S 42°16' E 028°59'0 0.1 1015.6 12.3
2016-Aug-15 12:00S 42°16' E 028°59'7 1.2 1015.1 12.3
2016-Aug-15 06:00S 42°17' E 028°49'1 1.3 1014.9 12.7
2016-Aug-15 05:00S 42°17' E 028°47'2 2.5 1013.7 12.7
2016-Aug-15 04:00S 42°17' E 028°44'0 0.0 1013.1 12.6
2016-Aug-15 03:00S 42°17' E 028°44'7 6.8 1012.4 12.5
2016-Aug-15 02:00S 42°16' E 028°35'0 0.0 1011.9 12.5
2016-Aug-15 01:00S 42°16' E 028°35'0 0.0 1011.2 12.5
2016-Aug-15 00:00S 42°16' E 028°35'1 0.2 1010.5 12.5
2016-Aug-14 21:00S 42°15' E 028°34'0 0.4 1006.6 12.5
2016-Aug-14 20:00S 42°15' E 028°34'0 0.0 1005.9 12.6
2016-Aug-14 18:00S 42°15' E 028°34'1 0.8 1004.2 12.6
2016-Aug-14 17:00S 42°16' E 028°33'2 1.0 1002.9 12.6
2016-Aug-14 15:00S 42°16' E 028°30'0 0.1 998.8 12.4
2016-Aug-14 14:00S 42°16' E 028°30'2 0.9 996.4 12.4
2016-Aug-14 12:00S 42°17' E 028°28'5 1.0 993.0 12.4
2016-Aug-14 07:00S 42°15' E 028°21'1 1.3 991.6 12.5
2016-Aug-14 06:00S 42°14' E 028°21'0 0.0 992.3 12.5
2016-Aug-14 05:00S 42°14' E 028°21'1 0.8 993.1 12.5
2016-Aug-14 04:00S 42°13' E 028°22'2 2.4 994.5 12.6
2016-Aug-14 03:00S 42°11' E 028°23'0 0.0 996.0 12.5
2016-Aug-14 02:00S 42°11' E 028°23'0 0.0 997.5 12.5
2016-Aug-14 01:00S 42°11' E 028°23'2 1.7 999.0 12.6
2016-Aug-14 00:00S 42°09' E 028°22'   1000.5 12.7

Dump ship's entire track history